Pacific Guardian — GDTT — position and weather

sailwx.info

Track history (hours):
 
Tides and Currents Weather Stations Pressure Air Temp Water Temp Dewpoint Dewpoint Depression Visibility Wind Speed Wind Dir Waves Ship Positions

Pacific Guardian

Last reported at 2017-Apr-21 18:00 UTC. Time now 2017-Apr-27 22:44 UTC.
Position N 16°18' W 068°30'.

Length 115 m; beam 18 m; draft 6.3 m.

Type: Other ship. MMSI: 232207000.

Wind from 090 at 20 knots

Barometer 1012.3 mb
Air temperature 27.0 ° C
Visibility: greater than 0.1 NM
Dewpoint 25.6 ° C
Water temperature 25.0 ° C

Date/timePositionNaut miles runAvg speedWind from/ knotsBaromVisibWave heightAir tempDewpointWater temp
2017-Apr-21 18:00N 16°18' W 068°30'29512.3 090 / 201012.3 0.1 27.025.625.0
2017-Apr-20 18:00N 21°12' W 069°00'   050 / 201015.8 0.1 24.523.023.0
2017-Apr-17 05:34N 36°52' W 075°52'110.4
2017-Apr-17 05:30N 36°52' W 075°53'610.4
2017-Apr-17 04:57N 36°56' W 075°58'4 9.0
2017-Apr-17 04:30N 36°59' W 076°01'6012.2
2017-Apr-16 23:35N 37°59' W 076°12'212.7
2017-Apr-16 23:25N 38°01' W 076°13'512.5
2017-Apr-16 23:00N 38°06' W 076°14'4410.7
2017-Apr-16 18:54N 38°49' W 076°25'512.9
2017-Apr-16 18:30N 38°54' W 076°24'612.7
2017-Apr-16 18:00N 39°00' W 076°23'612.1
2017-Apr-16 17:30N 39°06' W 076°24'611.7
2017-Apr-16 17:00N 39°11' W 076°28'611.5
2017-Apr-16 16:30N 39°15' W 076°33'2 4.8
2017-Apr-16 16:00N 39°16' W 076°36'0 0.0
2017-Apr-16 15:30N 39°16' W 076°36'0 0.0
2017-Apr-16 15:00N 39°16' W 076°36'0 0.0
2017-Apr-16 14:29N 39°16' W 076°36'0 0.0
2017-Apr-16 13:30N 39°16' W 076°36'0 0.0
2017-Apr-16 12:58N 39°16' W 076°36'0 0.0
2017-Apr-16 12:30N 39°16' W 076°36'0 0.0
2017-Apr-16 12:00N 39°16' W 076°36'0 0.0
2017-Apr-16 11:30N 39°16' W 076°36'0 0.0
2017-Apr-16 11:00N 39°16' W 076°36'0 0.0
2017-Apr-16 10:30N 39°16' W 076°36'0 0.0
2017-Apr-16 10:00N 39°16' W 076°36'0 0.0
2017-Apr-16 09:27N 39°16' W 076°36'0 0.0
2017-Apr-16 09:00N 39°16' W 076°36'0 0.0
2017-Apr-16 08:30N 39°16' W 076°36'0 0.0
2017-Apr-16 07:48N 39°16' W 076°36'0 0.0
2017-Apr-16 07:30N 39°16' W 076°36'0 0.0
2017-Apr-16 07:00N 39°16' W 076°36'0 0.0
2017-Apr-16 06:30N 39°16' W 076°36'0 0.0
2017-Apr-16 06:00N 39°16' W 076°36'0 0.0
2017-Apr-16 05:30N 39°16' W 076°36'0 0.0
2017-Apr-16 04:59N 39°16' W 076°36'0 0.0
2017-Apr-16 04:30N 39°16' W 076°36'0 0.0
2017-Apr-16 04:00N 39°16' W 076°36'0 0.0
2017-Apr-16 03:24N 39°16' W 076°36'0 0.0
2017-Apr-16 03:00N 39°16' W 076°36'0 0.0
2017-Apr-16 02:30N 39°16' W 076°36'0 0.0
2017-Apr-16 02:00N 39°16' W 076°36'0 0.0
2017-Apr-16 01:30N 39°16' W 076°36'0 0.0
2017-Apr-16 01:00N 39°16' W 076°36'0 0.0
2017-Apr-16 00:26N 39°16' W 076°36'0 0.0
2017-Apr-15 23:57N 39°16' W 076°36'0 0.0
2017-Apr-15 23:30N 39°16' W 076°36'0 0.0
2017-Apr-15 23:00N 39°16' W 076°36'0 0.0
2017-Apr-15 22:30N 39°16' W 076°36'0 0.0
2017-Apr-15 21:57N 39°16' W 076°36'0 0.0
2017-Apr-15 21:27N 39°16' W 076°36'0 0.5
2017-Apr-15 21:00N 39°16' W 076°36'2 4.3
2017-Apr-15 20:30N 39°15' W 076°33'5 9.5
2017-Apr-15 20:00N 39°12' W 076°29'611.3
2017-Apr-15 19:30N 39°09' W 076°22'511.1
2017-Apr-15 19:00N 39°12' W 076°16'612.6
2017-Apr-15 18:30N 39°18' W 076°13'712.9
2017-Apr-15 17:59N 39°22' W 076°07'612.4
2017-Apr-15 17:30N 39°26' W 076°01'611.3
2017-Apr-15 17:00N 39°30' W 075°56'4 7.7
2017-Apr-15 16:30N 39°32' W 075°51'3 6.0
2017-Apr-15 16:00N 39°32' W 075°47'5 9.8
2017-Apr-15 15:30N 39°33' W 075°41'4 9.0
2017-Apr-15 15:00N 39°33' W 075°35'3 6.7
2017-Apr-15 14:30N 39°31' W 075°33'1111.3
2017-Apr-15 13:30N 39°21' W 075°26'611.7
2017-Apr-15 13:00N 39°16' W 075°21'611.6
2017-Apr-15 12:30N 39°12' W 075°17'612.2
2017-Apr-15 12:00N 39°06' W 075°12'612.2
2017-Apr-15 11:30N 39°01' W 075°09'510.5
2017-Apr-15 11:00N 38°56' W 075°06'611.7
2017-Apr-15 10:30N 38°51' W 075°04'4 8.7
2017-Apr-15 10:00N 38°47' W 075°01'5 9.4
2017-Apr-15 09:30N 38°48' W 074°55'610.9
2017-Apr-15 09:00N 38°48' W 074°47'611.1
2017-Apr-15 08:30N 38°49' W 074°40'611.2
2017-Apr-15 08:00N 38°49' W 074°33'511.0
2017-Apr-15 07:30N 38°51' W 074°26'611.5
2017-Apr-15 07:00N 38°54' W 074°20'611.7
2017-Apr-15 06:30N 38°56' W 074°13'611.7
2017-Apr-15 06:00N 38°59' W 074°07'611.7
2017-Apr-15 05:30N 39°02' W 074°00'  
2017-Apr-12 03:19N 39°21' W 073°18'0 0.0
2017-Apr-12 02:56N 39°21' W 073°18'0 0.0
2017-Apr-12 02:26N 39°21' W 073°18'  
Track history (hours):
 
Tides and Currents Weather Stations Pressure Air Temp Water Temp Dewpoint Dewpoint Depression Visibility Wind Speed Wind Dir Waves Ship Positions

Pacific Guardian

Last reported at 2017-Apr-21 18:00 UTC. Time now 2017-Apr-27 22:44 UTC.
Position N 16°18' W 068°30'.

Length 115 m; beam 18 m; draft 6.3 m.

Type: Other ship. MMSI: 232207000.

Wind from 090 at 20 knots

Barometer 1012.3 mb
Air temperature 27.0 ° C
Visibility: greater than 0.1 NM
Dewpoint 25.6 ° C
Water temperature 25.0 ° C

Date/timePositionNaut miles runAvg speedWind from/ knotsBaromVisibWave heightAir tempDewpointWater temp
2017-Apr-21 18:00N 16°18' W 068°30'29512.3 090 / 201012.3 0.1 27.025.625.0
2017-Apr-20 18:00N 21°12' W 069°00'   050 / 201015.8 0.1 24.523.023.0
2017-Apr-17 05:34N 36°52' W 075°52'110.4
2017-Apr-17 05:30N 36°52' W 075°53'610.4
2017-Apr-17 04:57N 36°56' W 075°58'4 9.0
2017-Apr-17 04:30N 36°59' W 076°01'6012.2
2017-Apr-16 23:35N 37°59' W 076°12'212.7
2017-Apr-16 23:25N 38°01' W 076°13'512.5
2017-Apr-16 23:00N 38°06' W 076°14'4410.7
2017-Apr-16 18:54N 38°49' W 076°25'512.9
2017-Apr-16 18:30N 38°54' W 076°24'612.7
2017-Apr-16 18:00N 39°00' W 076°23'612.1
2017-Apr-16 17:30N 39°06' W 076°24'611.7
2017-Apr-16 17:00N 39°11' W 076°28'611.5
2017-Apr-16 16:30N 39°15' W 076°33'2 4.8
2017-Apr-16 16:00N 39°16' W 076°36'0 0.0
2017-Apr-16 15:30N 39°16' W 076°36'0 0.0
2017-Apr-16 15:00N 39°16' W 076°36'0 0.0
2017-Apr-16 14:29N 39°16' W 076°36'0 0.0
2017-Apr-16 13:30N 39°16' W 076°36'0 0.0
2017-Apr-16 12:58N 39°16' W 076°36'0 0.0
2017-Apr-16 12:30N 39°16' W 076°36'0 0.0
2017-Apr-16 12:00N 39°16' W 076°36'0 0.0
2017-Apr-16 11:30N 39°16' W 076°36'0 0.0
2017-Apr-16 11:00N 39°16' W 076°36'0 0.0
2017-Apr-16 10:30N 39°16' W 076°36'0 0.0
2017-Apr-16 10:00N 39°16' W 076°36'0 0.0
2017-Apr-16 09:27N 39°16' W 076°36'0 0.0
2017-Apr-16 09:00N 39°16' W 076°36'0 0.0
2017-Apr-16 08:30N 39°16' W 076°36'0 0.0
2017-Apr-16 07:48N 39°16' W 076°36'0 0.0
2017-Apr-16 07:30N 39°16' W 076°36'0 0.0
2017-Apr-16 07:00N 39°16' W 076°36'0 0.0
2017-Apr-16 06:30N 39°16' W 076°36'0 0.0
2017-Apr-16 06:00N 39°16' W 076°36'0 0.0
2017-Apr-16 05:30N 39°16' W 076°36'0 0.0
2017-Apr-16 04:59N 39°16' W 076°36'0 0.0
2017-Apr-16 04:30N 39°16' W 076°36'0 0.0
2017-Apr-16 04:00N 39°16' W 076°36'0 0.0
2017-Apr-16 03:24N 39°16' W 076°36'0 0.0
2017-Apr-16 03:00N 39°16' W 076°36'0 0.0
2017-Apr-16 02:30N 39°16' W 076°36'0 0.0
2017-Apr-16 02:00N 39°16' W 076°36'0 0.0
2017-Apr-16 01:30N 39°16' W 076°36'0 0.0
2017-Apr-16 01:00N 39°16' W 076°36'0 0.0
2017-Apr-16 00:26N 39°16' W 076°36'0 0.0
2017-Apr-15 23:57N 39°16' W 076°36'0 0.0
2017-Apr-15 23:30N 39°16' W 076°36'0 0.0
2017-Apr-15 23:00N 39°16' W 076°36'0 0.0
2017-Apr-15 22:30N 39°16' W 076°36'0 0.0
2017-Apr-15 21:57N 39°16' W 076°36'0 0.0
2017-Apr-15 21:27N 39°16' W 076°36'0 0.5
2017-Apr-15 21:00N 39°16' W 076°36'2 4.3
2017-Apr-15 20:30N 39°15' W 076°33'5 9.5
2017-Apr-15 20:00N 39°12' W 076°29'611.3
2017-Apr-15 19:30N 39°09' W 076°22'511.1
2017-Apr-15 19:00N 39°12' W 076°16'612.6
2017-Apr-15 18:30N 39°18' W 076°13'712.9
2017-Apr-15 17:59N 39°22' W 076°07'612.4
2017-Apr-15 17:30N 39°26' W 076°01'611.3
2017-Apr-15 17:00N 39°30' W 075°56'4 7.7
2017-Apr-15 16:30N 39°32' W 075°51'3 6.0
2017-Apr-15 16:00N 39°32' W 075°47'5 9.8
2017-Apr-15 15:30N 39°33' W 075°41'4 9.0
2017-Apr-15 15:00N 39°33' W 075°35'3 6.7
2017-Apr-15 14:30N 39°31' W 075°33'1111.3
2017-Apr-15 13:30N 39°21' W 075°26'611.7
2017-Apr-15 13:00N 39°16' W 075°21'611.6
2017-Apr-15 12:30N 39°12' W 075°17'612.2
2017-Apr-15 12:00N 39°06' W 075°12'612.2
2017-Apr-15 11:30N 39°01' W 075°09'510.5
2017-Apr-15 11:00N 38°56' W 075°06'611.7
2017-Apr-15 10:30N 38°51' W 075°04'4 8.7
2017-Apr-15 10:00N 38°47' W 075°01'5 9.4
2017-Apr-15 09:30N 38°48' W 074°55'610.9
2017-Apr-15 09:00N 38°48' W 074°47'611.1
2017-Apr-15 08:30N 38°49' W 074°40'611.2
2017-Apr-15 08:00N 38°49' W 074°33'511.0
2017-Apr-15 07:30N 38°51' W 074°26'611.5
2017-Apr-15 07:00N 38°54' W 074°20'611.7
2017-Apr-15 06:30N 38°56' W 074°13'611.7
2017-Apr-15 06:00N 38°59' W 074°07'611.7
2017-Apr-15 05:30N 39°02' W 074°00'  
2017-Apr-12 03:19N 39°21' W 073°18'0 0.0
2017-Apr-12 02:56N 39°21' W 073°18'0 0.0
2017-Apr-12 02:26N 39°21' W 073°18'  

Dump ship's entire track history